History for KNYNEWYO585

Bryant Park, New York, NY — Current Conditions
Daily Summary for December 16, 2018
  Current: High: Low: Average:
Temperature: 43.2°F 50.2°F 41.9°F 46.0°F
Dew Point: 41.4°F 42.1°F 33.3°F 39.5°F
Humidity: 93% 94% 59% 85%
Wind Speed: 0.0mph 27.5mph - 1.3mph
Wind Gust: 0.0mph 36.9mph - -
Wind: SW - - WSW
Pressure: 29.86in 30.13in 29.85in -
Precipitation: 0.01in      
Solar Radiation: 0 watts/m^2      
UV Index: 0.0      
Statistics for the rest of the month
    High: Low: Average:
Temperature:   55.2°F 27.3°F 40.5°F
Dew Point:   50.9°F 4.8°F 24.5°F
Humidity:   94.0% 28.0% 55.4%
Wind Speed:   32.2mph from the ESE - 2.0mph
Wind Gust:   45.0mph from the East - -
Wind:   - - South
Pressure:   30.61in 29.85in -
Precipitation:   0.03in    
KNYNEWYO585 Weather Graph
Tabular Data for December 16, 2018
Time Temp. Windchill Dew Point Pressure Wind Gust Humidity Rainfall Solar Radiation
00:04 50°F - 38.7°F 30.11in 7.4mph 65% 0in 0.00 watts/m^2
00:09 50°F - 39.2°F 30.11in 0mph 66% 0in 0.00 watts/m^2
00:14 49.8°F - 39°F 30.10in 7.4mph 66% 0in 0.00 watts/m^2
00:19 49.6°F - 39.2°F 30.09in 7.4mph 67% 0in 0.00 watts/m^2
00:24 49.5°F - 39°F 30.09in 0mph 67% 0in 0.00 watts/m^2
00:29 49.3°F - 38.8°F 30.09in 0mph 67% 0in 0.00 watts/m^2
00:34 49.1°F - 38.3°F 30.10in 0mph 66% 0in 0.00 watts/m^2
00:39 48.9°F - 38.1°F 30.11in 7.4mph 66% 0in 0.00 watts/m^2
00:44 48.9°F - 37.8°F 30.11in 0mph 65% 0in 0.00 watts/m^2
00:49 48.7°F - 37.6°F 30.10in 14.8mph 65% 0in 0.00 watts/m^2
00:54 48.6°F - 37.8°F 30.10in 7.4mph 66% 0in 0.00 watts/m^2
00:59 48.6°F - 37.4°F 30.11in 7.4mph 65% 0in 0.00 watts/m^2
01:04 48.4°F - 36.9°F 30.11in 7.4mph 64% 0in 0.00 watts/m^2
01:09 48.4°F - 36.9°F 30.10in 7.4mph 64% 0in 0.00 watts/m^2
01:14 48.2°F - 36.7°F 30.10in 0mph 64% 0in 0.00 watts/m^2
01:19 48.2°F - 36.7°F 30.10in 7.4mph 64% 0in 0.00 watts/m^2
01:24 48.2°F - 36.7°F 30.10in 0mph 64% 0in 0.00 watts/m^2
01:29 48.2°F - 36.7°F 30.09in 0mph 64% 0in 0.00 watts/m^2
01:34 48.2°F - 35.8°F 30.10in 7.4mph 62% 0in 0.00 watts/m^2
01:39 48.2°F - 36.1°F 30.10in 0mph 63% 0in 0.00 watts/m^2
01:44 48°F - 35.6°F 30.10in 14.8mph 62% 0in 0.00 watts/m^2
01:49 47.8°F - 35.4°F 30.10in 14.8mph 62% 0in 0.00 watts/m^2
01:54 47.8°F - 35.4°F 30.11in 0mph 62% 0in 0.00 watts/m^2
01:59 47.8°F - 35.1°F 30.12in 0mph 61% 0in 0.00 watts/m^2
02:04 47.7°F - 34.9°F 30.11in 0mph 61% 0in 0.00 watts/m^2
02:09 47.7°F - 34.5°F 30.10in 14.8mph 60% 0in 0.00 watts/m^2
02:14 47.5°F - 34.3°F 30.11in 14.8mph 60% 0in 0.00 watts/m^2
02:19 47.5°F - 34.7°F 30.10in 7.4mph 61% 0in 0.00 watts/m^2
02:24 47.5°F - 34.7°F 30.11in 0mph 61% 0in 0.00 watts/m^2
02:29 47.5°F - 34.3°F 30.11in 0mph 60% 0in 0.00 watts/m^2
02:34 47.3°F - 34.2°F 30.11in 7.4mph 60% 0in 0.00 watts/m^2
02:39 47.3°F - 34.2°F 30.11in 0mph 60% 0in 0.00 watts/m^2
02:44 47.1°F - 34°F 30.12in 0mph 60% 0in 0.00 watts/m^2
02:49 47.1°F - 34°F 30.13in 7.4mph 60% 0in 0.00 watts/m^2
02:54 47.1°F - 34°F 30.13in 7.4mph 60% 0in 0.00 watts/m^2
02:59 46.9°F - 33.8°F 30.13in 7.4mph 60% 0in 0.00 watts/m^2
03:04 46.9°F - 33.8°F 30.12in 0mph 60% 0in 0.00 watts/m^2
03:09 46.8°F - 34°F 30.13in 0mph 61% 0in 0.00 watts/m^2
03:14 46.8°F - 33.3°F 30.13in 7.4mph 59% 0in 0.00 watts/m^2
03:19 46.6°F - 34.3°F 30.13in 0mph 62% 0in 0.00 watts/m^2
03:24 46.6°F - 34.3°F 30.12in 7.4mph 62% 0in 0.00 watts/m^2
03:29 46.4°F - 35.6°F 30.12in 0mph 66% 0in 0.00 watts/m^2
03:34 46°F - 36.5°F 30.11in 7.4mph 69% 0in 0.00 watts/m^2
03:39 45.9°F - 37°F 30.11in 0mph 71% 0.02in 0.00 watts/m^2
03:44 45.5°F - 37.4°F 30.10in 0mph 73% 0.02in 0.00 watts/m^2
03:49 45.3°F - 37.9°F 30.10in 0mph 75% 0in 0.00 watts/m^2
03:54 45°F - 37.9°F 30.10in 0mph 76% 0in 0.00 watts/m^2
03:59 44.8°F - 38.7°F 30.09in 0mph 79% 0in 0.00 watts/m^2
04:04 44.6°F - 38.5°F 30.09in 0mph 79% 0.02in 0.00 watts/m^2
04:09 44.4°F - 38.3°F 30.09in 0mph 79% 0.02in 0.00 watts/m^2
04:14 44.2°F - 38.5°F 30.09in 0mph 80% 0in 0.00 watts/m^2
04:19 44.1°F - 38.7°F 30.10in 0mph 81% 0in 0.00 watts/m^2
04:24 43.9°F - 38.5°F 30.10in 7.4mph 81% 0in 0.00 watts/m^2
04:29 43.7°F - 38.3°F 30.10in 0mph 81% 0in 0.00 watts/m^2
04:34 43.7°F - 38.3°F 30.10in 0mph 81% 0in 0.00 watts/m^2
04:39 43.7°F - 38.7°F 30.11in 0mph 82% 0.02in 0.00 watts/m^2
04:44 43.7°F - 38.8°F 30.11in 0mph 83% 0.02in 0.00 watts/m^2
04:49 43.5°F - 38.7°F 30.13in 0mph 83% 0in 0.00 watts/m^2
04:54 43.5°F 39.9°F 38.7°F 30.12in 14.8mph 83% 0in 0.00 watts/m^2
04:59 43.3°F - 38.8°F 30.12in 0mph 84% 0in 0.00 watts/m^2
05:04 43.3°F - 38.8°F 30.11in 0mph 84% 0in 0.00 watts/m^2
05:09 43.2°F - 39°F 30.11in 0mph 85% 0in 0.00 watts/m^2
05:14 43°F - 39°F 30.11in 0mph 86% 0in 0.00 watts/m^2
05:19 43°F - 39.4°F 30.11in 0mph 87% 0in 0.00 watts/m^2
05:24 43°F - 39.4°F 30.10in 7.4mph 87% 0in 0.00 watts/m^2
05:29 43°F - 39.7°F 30.09in 7.4mph 88% 0in 0.00 watts/m^2
05:34 43°F 41.4°F 39.7°F 30.09in 7.4mph 88% 0in 0.00 watts/m^2
05:39 43°F - 39.9°F 30.09in 0mph 89% 0in 0.00 watts/m^2
05:44 43°F 40.8°F 40.3°F 30.08in 7.4mph 90% 0in 0.00 watts/m^2
05:49 43°F - 40.3°F 30.07in 0mph 90% 0in 0.00 watts/m^2
05:54 42.8°F - 40.1°F 30.07in 0mph 90% 0in 0.00 watts/m^2
05:59 42.6°F - 39.9°F 30.06in 0mph 90% 0in 0.00 watts/m^2
06:04 42.4°F - 40.1°F 30.05in 0mph 91% 0in 0.00 watts/m^2
06:09 42.4°F - 40.1°F 30.04in 0mph 91% 0in 0.00 watts/m^2
06:14 42.3°F - 39.9°F 30.04in 0mph 91% 0in 0.00 watts/m^2
06:19 42.1°F - 39.7°F 30.04in 0mph 91% 0in 0.00 watts/m^2
06:24 42.1°F - 39.7°F 30.04in 7.4mph 91% 0in 0.00 watts/m^2
06:29 42.1°F - 39.7°F 30.05in 0mph 91% 0in 0.00 watts/m^2
06:34 42.1°F - 39.7°F 30.04in 7.4mph 91% 0in 0.00 watts/m^2
06:39 42.1°F - 39.7°F 30.04in 0mph 91% 0in 0.00 watts/m^2
06:44 42.1°F - 39.7°F 30.06in 0mph 91% 0in 0.00 watts/m^2
06:49 42.1°F - 39.7°F 30.07in 7.4mph 91% 0in 0.00 watts/m^2
06:54 42.1°F - 39.9°F 30.08in 0mph 92% 0in 0.00 watts/m^2
06:59 42.1°F - 39.9°F 30.08in 0mph 92% 0in 0.00 watts/m^2
07:04 42.1°F - 39.9°F 30.07in 0mph 92% 0in 0.00 watts/m^2
07:09 42.1°F - 39.9°F 30.07in 0mph 92% 0in 0.00 watts/m^2
07:14 42.1°F - 39.9°F 30.06in 0mph 92% 0in 0.00 watts/m^2
07:19 42.1°F - 39.9°F 30.06in 0mph 92% 0in 0.00 watts/m^2
07:24 42.1°F - 39.9°F 30.05in 0mph 92% 0in 0.63 watts/m^2
07:29 42.1°F - 39.9°F 30.06in 0mph 92% 0in 0.85 watts/m^2
07:34 42.1°F 40.3°F 39.9°F 30.06in 7.4mph 92% 0in 1.30 watts/m^2
07:39 42.1°F - 39.9°F 30.05in 0mph 92% 0in 2.31 watts/m^2
07:44 42.1°F - 39.7°F 30.06in 0mph 91% 0in 2.34 watts/m^2
07:49 41.9°F - 39.6°F 30.06in 7.4mph 91% 0in 2.77 watts/m^2
07:54 41.9°F - 39.7°F 30.05in 0mph 92% 0in 2.82 watts/m^2
07:59 41.9°F 34.8°F 39.6°F 30.06in 14.8mph 91% 0in 2.87 watts/m^2
08:04 41.9°F - 39.7°F 30.06in 7.4mph 92% 0in 2.79 watts/m^2
08:09 41.9°F - 39.7°F 30.06in 0mph 92% 0in 2.63 watts/m^2
08:14 41.9°F - 39.6°F 30.06in 7.4mph 91% 0in 3.51 watts/m^2
08:19 41.9°F - 39.6°F 30.06in 0mph 91% 0in 6.61 watts/m^2
08:24 41.9°F - 39.6°F 30.05in 0mph 91% 0in 10.09 watts/m^2
08:29 41.9°F - 39.6°F 30.05in 0mph 91% 0in 10.50 watts/m^2
08:34 41.9°F - 39.6°F 30.05in 0mph 91% 0in 10.11 watts/m^2
08:39 41.9°F - 39.7°F 30.06in 0mph 92% 0in 9.78 watts/m^2
08:44 41.9°F - 39.6°F 30.05in 0mph 91% 0in 10.18 watts/m^2
08:49 41.9°F - 39.6°F 30.05in 0mph 91% 0in 7.19 watts/m^2
08:54 41.9°F - 39.7°F 30.06in 0mph 92% 0in 4.98 watts/m^2
08:59 41.9°F - 39.7°F 30.04in 7.4mph 92% 0in 8.24 watts/m^2
09:04 42.1°F 38.3°F 39.9°F 30.05in 14.8mph 92% 0in 5.51 watts/m^2
09:09 41.9°F - 39.7°F 30.05in 7.4mph 92% 0in 6.13 watts/m^2
09:14 41.9°F - 39.7°F 30.05in 0mph 92% 0in 5.37 watts/m^2
09:19 41.9°F - 39.7°F 30.05in 7.4mph 92% 0in 8.03 watts/m^2
09:24 41.9°F - 40.1°F 30.05in 0mph 93% 0in 9.37 watts/m^2
09:29 41.9°F 40.1°F 39.7°F 30.04in 7.4mph 92% 0in 6.97 watts/m^2
09:34 41.9°F - 40.1°F 30.04in 0mph 93% 0in 6.71 watts/m^2
09:39 41.9°F - 39.7°F 30.03in 0mph 92% 0in 8.34 watts/m^2
09:44 42.1°F 35.5°F 40.3°F 30.03in 14.8mph 93% 0in 8.72 watts/m^2
09:49 42.3°F - 40.5°F 30.04in 0mph 93% 0in 11.09 watts/m^2
09:54 42.3°F - 40.5°F 30.05in 7.4mph 93% 0in 11.29 watts/m^2
09:59 42.3°F 38.5°F 40.5°F 30.04in 14.8mph 93% 0in 15.00 watts/m^2
10:04 42.3°F - 40.5°F 30.04in 0mph 93% 0in 9.27 watts/m^2
10:09 42.1°F - 40.3°F 30.04in 0mph 93% 0in 9.46 watts/m^2
10:14 42.1°F - 39.9°F 30.03in 0mph 92% 0in 12.51 watts/m^2
10:19 42.3°F - 40.1°F 30.02in 7.4mph 92% 0in 12.10 watts/m^2
10:24 42.4°F - 40.3°F 30.02in 0mph 92% 0in 13.21 watts/m^2
10:29 42.4°F - 40.6°F 30.01in 0mph 93% 0in 12.76 watts/m^2
10:34 42.6°F - 40.8°F 30.02in 0mph 93% 0in 14.64 watts/m^2
10:39 42.6°F - 40.5°F 30.02in 0mph 92% 0in 17.21 watts/m^2
10:44 42.8°F - 40.6°F 30.01in 7.4mph 92% 0in 13.44 watts/m^2
10:49 42.8°F - 41°F 30.01in 7.4mph 93% 0in 13.23 watts/m^2
10:54 42.8°F 39.1°F 41°F 30.00in 7.4mph 93% 0in 14.27 watts/m^2
10:59 42.6°F - 41°F 30.00in 7.4mph 94% 0in 15.82 watts/m^2
11:04 42.6°F - 40.8°F 30.00in 0mph 93% 0in 13.16 watts/m^2
11:09 42.8°F - 41°F 30.00in 0mph 93% 0in 12.32 watts/m^2
11:14 42.8°F 41.1°F 41°F 29.99in 7.4mph 93% 0in 12.89 watts/m^2
11:19 43°F - 41.2°F 29.99in 0mph 93% 0in 12.61 watts/m^2
11:24 42.8°F - 41°F 29.98in 0mph 93% 0in 19.42 watts/m^2
11:29 43°F 39.3°F 41.2°F 29.97in 7.4mph 93% 0in 17.10 watts/m^2
11:34 43°F - 41.4°F 29.97in 7.4mph 94% 0in 17.25 watts/m^2
11:39 43°F - 41.2°F 29.97in 0mph 93% 0in 13.31 watts/m^2
11:44 43°F - 41.2°F 29.96in 0mph 93% 0in 19.06 watts/m^2
11:49 43°F - 41.2°F 29.96in 0mph 93% 0in 16.42 watts/m^2
11:54 43°F - 41.2°F 29.96in 0mph 93% 0in 14.17 watts/m^2
11:59 43°F - 41.2°F 29.95in 0mph 93% 0in 13.59 watts/m^2
12:04 43.2°F - 41.4°F 29.94in 0mph 93% 0in 16.89 watts/m^2
12:09 43.2°F - 41.4°F 29.94in 0mph 93% 0in 19.06 watts/m^2
12:14 43.3°F - 41.7°F 29.93in 0mph 94% 0in 18.34 watts/m^2
12:19 43.3°F - 41.7°F 29.93in 0mph 94% 0in 20.32 watts/m^2
12:24 43.5°F - 41.9°F 29.93in 0mph 94% 0in 14.25 watts/m^2
12:29 43.5°F - 41.9°F 29.92in 7.4mph 94% 0in 15.89 watts/m^2
12:34 43.7°F - 41.9°F 29.92in 7.4mph 93% 0in 17.00 watts/m^2
12:39 43.7°F - 41.9°F 29.91in 7.4mph 93% 0in 10.40 watts/m^2
12:44 43.7°F - 42.1°F 29.91in 0mph 94% 0in 14.93 watts/m^2
12:49 43.7°F 38.8°F 41.9°F 29.91in 14.8mph 93% 0in 10.50 watts/m^2
12:54 43.7°F - 42.1°F 29.90in 0mph 94% 0in 8.15 watts/m^2
12:59 43.7°F - 42.1°F 29.90in 0mph 94% 0in 12.01 watts/m^2
13:04 43.5°F - 41.9°F 29.90in 0mph 94% 0in 13.18 watts/m^2
13:09 43.5°F - 41.9°F 29.89in 0mph 94% 0in 8.15 watts/m^2
13:14 43.5°F - 41.9°F 29.89in 0mph 94% 0in 7.79 watts/m^2
13:19 43.5°F - 41.9°F 29.89in 0mph 94% 0in 6.61 watts/m^2
13:24 43.5°F - 41.9°F 29.88in 7.4mph 94% 0in 9.39 watts/m^2
13:29 43.7°F - 42.1°F 29.89in 0mph 94% 0in 7.95 watts/m^2
13:34 43.7°F - 42.1°F 29.88in 0mph 94% 0in 8.24 watts/m^2
13:39 43.7°F - 42.1°F 29.88in 7.4mph 94% 0in 7.81 watts/m^2
13:44 43.7°F - 42.1°F 29.88in 0mph 94% 0in 6.97 watts/m^2
13:49 43.7°F 39.1°F 42.1°F 29.88in 14.8mph 94% 0in 5.20 watts/m^2
13:54 43.7°F - 41.9°F 29.88in 0mph 93% 0in 6.30 watts/m^2
13:59 43.7°F - 41.9°F 29.88in 0mph 93% 0in 6.52 watts/m^2
14:04 43.7°F - 41.9°F 29.88in 0mph 93% 0in 5.13 watts/m^2
14:09 43.7°F - 41.9°F 29.88in 7.4mph 93% 0in 4.84 watts/m^2
14:14 43.7°F - 41.9°F 29.88in 7.4mph 93% 0in 7.28 watts/m^2
14:19 43.7°F - 41.9°F 29.88in 0mph 93% 0in 7.45 watts/m^2
14:24 43.5°F - 41.7°F 29.88in 0mph 93% 0in 7.76 watts/m^2
14:29 43.7°F - 41.9°F 29.87in 0mph 93% 0in 9.42 watts/m^2
14:34 43.7°F - 41.9°F 29.87in 0mph 93% 0in 13.23 watts/m^2
14:39 43.7°F - 41.9°F 29.87in 0mph 93% 0in 16.48 watts/m^2
14:44 43.7°F - 41.9°F 29.87in 0mph 93% 0in 18.61 watts/m^2
14:49 43.7°F - 41.9°F 29.88in 7.4mph 93% 0in 17.25 watts/m^2
14:54 43.5°F - 41.7°F 29.87in 0mph 93% 0in 10.76 watts/m^2
14:59 43.5°F - 41.7°F 29.87in 0mph 93% 0in 10.06 watts/m^2
15:04 43.3°F - 41.5°F 29.87in 0mph 93% 0in 9.82 watts/m^2
15:09 43.3°F 34.8°F 41.5°F 29.86in 22.1mph 93% 0in 10.78 watts/m^2
15:14 43.2°F - 41°F 29.87in 0mph 92% 0in 7.64 watts/m^2
15:19 43.2°F - 41.4°F 29.87in 0mph 93% 0in 8.07 watts/m^2
15:24 43.2°F 40.0°F 41°F 29.87in 7.4mph 92% 0in 4.82 watts/m^2
15:29 43.2°F 41.6°F 41°F 29.86in 7.4mph 92% 0in 3.27 watts/m^2
15:34 43.2°F - 41°F 29.86in 0mph 92% 0in 2.34 watts/m^2
15:39 43.2°F - 41.4°F 29.87in 7.4mph 93% 0in 2.68 watts/m^2
15:44 43.2°F 36.8°F 41°F 29.86in 14.8mph 92% 0in 2.23 watts/m^2
15:49 43.2°F - 41°F 29.88in 0mph 92% 0in 1.43 watts/m^2
15:54 43.2°F - 41°F 29.86in 0mph 92% 0in 0.66 watts/m^2
15:59 43.2°F - 41°F 29.86in 7.4mph 92% 0in 0.29 watts/m^2
16:04 43.2°F - 41°F 29.86in 0mph 92% 0in 0.23 watts/m^2
16:09 43.2°F - 41°F 29.87in 0mph 92% 0in 0.00 watts/m^2
16:14 43.2°F - 41°F 29.86in 0mph 92% 0in 0.00 watts/m^2
16:19 43.2°F 41.6°F 41°F 29.86in 7.4mph 92% 0in 0.00 watts/m^2
16:24 43.2°F - 41°F 29.86in 0mph 92% 0in 0.00 watts/m^2
16:29 43.2°F - 41.4°F 29.86in 0mph 93% 0in 0.00 watts/m^2
16:34 43.2°F - 41.4°F 29.86in 7.4mph 93% 0in 0.00 watts/m^2
Comma Delimited File
Powered by Weather Underground, Inc.